createdAt,value
2018-08-03T00:00:26.807Z,10.20
2018-08-03T00:02:53.776Z,9.30
2018-08-03T00:05:20.980Z,9.80
2018-08-03T00:07:49.627Z,9.37
2018-08-03T00:10:16.953Z,9.20
2018-08-03T00:12:45.185Z,11.37
2018-08-03T00:15:12.273Z,9.97
2018-08-03T00:17:39.950Z,9.57
2018-08-03T00:20:07.084Z,10.50
2018-08-03T00:22:34.152Z,9.60
2018-08-03T00:25:01.214Z,10.63
2018-08-03T00:27:28.451Z,8.97
2018-08-03T00:29:57.860Z,9.93
2018-08-03T00:32:24.807Z,10.33
2018-08-03T00:34:51.614Z,9.10
2018-08-03T00:37:18.787Z,8.88
2018-08-03T00:39:46.059Z,8.80
2018-08-03T00:42:13.189Z,10.73
2018-08-03T00:44:40.160Z,9.80
2018-08-03T00:49:39.576Z,9.07
2018-08-03T00:52:06.480Z,9.50
2018-08-03T00:54:33.437Z,9.77
2018-08-03T00:57:00.443Z,11.17
2018-08-03T00:59:27.394Z,9.67
2018-08-03T01:01:54.354Z,10.33
2018-08-03T01:04:21.413Z,9.80
2018-08-03T01:06:48.385Z,9.87
2018-08-03T01:09:15.437Z,10.33
2018-08-03T01:11:42.484Z,9.63
2018-08-03T01:14:10.657Z,9.73
2018-08-03T01:16:37.647Z,9.30
2018-08-03T01:19:04.650Z,9.93
2018-08-03T01:21:31.492Z,10.27
2018-08-03T01:23:58.406Z,9.18
2018-08-03T01:26:25.538Z,10.03
2018-08-03T01:28:52.422Z,10.57
2018-08-03T01:31:19.477Z,9.93
2018-08-03T01:33:46.383Z,8.63
2018-08-03T01:36:13.356Z,10.03
2018-08-03T01:38:40.608Z,11.27
2018-08-03T01:41:07.668Z,9.00
2018-08-03T01:43:34.613Z,9.00
2018-08-03T01:46:03.808Z,9.33
2018-08-03T01:48:31.444Z,9.97
2018-08-03T01:50:58.338Z,11.03
2018-08-03T01:53:26.071Z,10.03
2018-08-03T01:55:53.805Z,9.53
2018-08-03T01:58:20.989Z,9.80
2018-08-03T02:03:19.515Z,9.60
2018-08-03T02:05:46.274Z,10.18
2018-08-03T02:08:13.171Z,11.73
2018-08-03T02:10:40.022Z,9.33
2018-08-03T02:13:07.237Z,9.43
2018-08-03T02:15:33.972Z,11.28
2018-08-03T02:18:00.951Z,10.40
2018-08-03T02:20:27.779Z,9.80
2018-08-03T02:22:54.601Z,12.57
2018-08-03T02:25:21.434Z,10.70
2018-08-03T02:27:48.315Z,9.93
2018-08-03T02:30:15.132Z,9.63
2018-08-03T02:32:41.998Z,10.43
2018-08-03T02:35:08.814Z,10.50
2018-08-03T02:37:35.674Z,10.95
2018-08-03T02:40:02.516Z,11.70
2018-08-03T02:42:29.357Z,10.80
2018-08-03T02:44:56.180Z,10.23
2018-08-03T02:47:23.290Z,9.40
2018-08-03T02:49:50.280Z,9.93
2018-08-03T02:52:17.360Z,9.93
2018-08-03T02:54:44.302Z,8.30
2018-08-03T02:57:11.295Z,10.00
2018-08-03T02:59:38.255Z,12.20
2018-08-03T03:02:05.161Z,9.40
2018-08-03T03:04:32.183Z,11.33
2018-08-03T03:06:59.186Z,9.30
2018-08-03T03:09:26.196Z,10.60
2018-08-03T03:11:54.714Z,10.53
2018-08-03T03:14:21.735Z,10.30
2018-08-03T03:16:48.787Z,9.50
2018-08-03T03:19:15.883Z,9.67
2018-08-03T03:21:42.778Z,10.03
2018-08-03T03:24:09.790Z,11.07
2018-08-03T03:26:36.706Z,10.53
2018-08-03T03:29:03.679Z,9.63
2018-08-03T03:31:30.552Z,14.33
2018-08-03T03:33:57.424Z,9.65
2018-08-03T03:36:24.404Z,10.88
2018-08-03T03:38:51.280Z,9.63
2018-08-03T03:41:18.198Z,10.45
2018-08-03T03:43:47.499Z,10.15
2018-08-03T03:46:14.438Z,12.30
2018-08-03T03:48:41.305Z,10.27
2018-08-03T03:51:08.276Z,10.18
2018-08-03T03:53:35.173Z,13.10
2018-08-03T03:56:02.105Z,10.25
2018-08-03T03:58:29.269Z,9.25
2018-08-03T04:00:56.258Z,10.80
2018-08-03T04:03:23.875Z,8.80
2018-08-03T04:05:50.763Z,10.03
2018-08-03T04:08:17.811Z,10.60
2018-08-03T04:10:44.793Z,10.20
2018-08-03T04:13:11.858Z,9.10
2018-08-03T04:15:45.201Z,10.30
2018-08-03T04:18:12.299Z,11.70
2018-08-03T04:20:39.244Z,9.80
2018-08-03T04:23:06.615Z,15.80
2018-08-03T04:25:33.406Z,16.63
2018-08-03T04:28:00.415Z,14.70
2018-08-03T04:30:27.264Z,15.07
2018-08-03T04:32:54.108Z,17.12
2018-08-03T04:35:20.935Z,23.12
2018-08-03T04:37:47.788Z,18.53
2018-08-03T04:40:14.655Z,16.93
2018-08-03T04:42:41.534Z,16.70
2018-08-03T04:45:08.373Z,18.50
2018-08-03T04:47:35.386Z,18.43
2018-08-03T04:50:02.291Z,19.73
2018-08-03T04:52:29.160Z,24.63
2018-08-03T04:54:56.064Z,21.40
2018-08-03T04:57:22.985Z,20.73
2018-08-03T04:59:49.885Z,20.23
2018-08-03T05:02:17.064Z,18.87
2018-08-03T05:04:43.975Z,19.73
2018-08-03T05:07:10.968Z,19.97
2018-08-03T05:09:37.862Z,26.03
2018-08-03T05:12:04.697Z,19.80
2018-08-03T05:14:31.612Z,19.10
2018-08-03T05:16:58.559Z,24.03
2018-08-03T05:19:25.790Z,21.62
2018-08-03T05:21:52.623Z,22.50
2018-08-03T05:24:19.594Z,19.60
2018-08-03T05:26:46.512Z,20.23
2018-08-03T05:29:13.490Z,22.13
2018-08-03T05:31:40.394Z,21.70
2018-08-03T05:34:07.425Z,20.10
2018-08-03T05:36:34.236Z,23.70
2018-08-03T05:39:01.116Z,22.45
2018-08-03T05:41:27.980Z,24.50
2018-08-03T05:43:54.890Z,20.80
2018-08-03T05:46:21.742Z,17.47
2018-08-03T05:48:48.642Z,23.60
2018-08-03T05:51:15.576Z,23.10
2018-08-03T05:53:42.376Z,23.87
2018-08-03T05:56:09.561Z,25.17
2018-08-03T05:58:36.533Z,21.60
2018-08-03T06:01:03.366Z,32.63
2018-08-03T06:03:30.271Z,17.10
2018-08-03T06:05:57.111Z,17.07
2018-08-03T06:08:24.044Z,19.73
2018-08-03T06:10:50.882Z,17.53
2018-08-03T06:13:17.821Z,16.17
2018-08-03T06:15:44.646Z,22.90
2018-08-03T06:18:11.628Z,24.98
2018-08-03T06:20:38.530Z,16.75
2018-08-03T06:23:05.429Z,23.85
2018-08-03T06:25:32.267Z,19.85
2018-08-03T06:36:00.133Z,15.77
2018-08-03T06:38:38.227Z,18.10
2018-08-03T06:41:17.622Z,17.63
2018-08-03T06:43:50.933Z,15.03
2018-08-03T06:46:27.539Z,21.57
2018-08-03T06:51:34.687Z,16.47
2018-08-03T06:54:01.575Z,16.57
2018-08-03T06:56:28.418Z,15.00
2018-08-03T06:58:55.279Z,20.50
2018-08-03T07:01:22.121Z,24.27
2018-08-03T07:03:48.955Z,17.90
2018-08-03T07:06:15.904Z,25.37
2018-08-03T07:08:42.763Z,24.23
2018-08-03T07:11:09.639Z,19.70
2018-08-03T07:13:41.020Z,18.10
2018-08-03T07:18:49.128Z,18.30
2018-08-03T07:21:15.879Z,22.97
2018-08-03T07:23:42.769Z,22.13
2018-08-03T07:26:09.730Z,24.37
2018-08-03T07:28:36.727Z,23.22
2018-08-03T07:31:03.606Z,23.98
2018-08-03T07:33:30.648Z,20.57
2018-08-03T07:35:57.594Z,16.82
2018-08-03T07:38:24.555Z,38.92
2018-08-03T07:40:51.471Z,21.33
2018-08-03T07:43:18.350Z,22.20
2018-08-03T07:45:45.176Z,16.27
2018-08-03T07:48:12.216Z,28.47
2018-08-03T07:50:39.168Z,20.77
2018-08-03T07:53:06.083Z,23.10
2018-08-03T07:55:32.954Z,19.07
2018-08-03T07:57:59.953Z,18.20
2018-08-03T08:00:26.822Z,20.10
2018-08-03T08:02:53.678Z,18.97
2018-08-03T08:05:20.595Z,33.23
2018-08-03T08:07:47.813Z,30.63
2018-08-03T08:10:14.732Z,18.33
2018-08-03T08:12:41.571Z,18.00
2018-08-03T08:15:08.479Z,15.30
2018-08-03T08:17:35.420Z,14.23
2018-08-03T08:20:02.266Z,17.43
2018-08-03T08:22:29.170Z,18.30
2018-08-03T08:24:56.063Z,15.50
2018-08-03T08:27:22.993Z,21.30
2018-08-03T08:29:49.835Z,21.30
2018-08-03T08:32:17.001Z,21.70
2018-08-03T08:34:43.929Z,13.27
2018-08-03T08:37:10.954Z,13.63
2018-08-03T08:39:37.797Z,14.47
2018-08-03T08:42:04.663Z,15.70
2018-08-03T08:44:31.516Z,16.00
2018-08-03T08:46:58.561Z,17.23
2018-08-03T08:49:25.566Z,19.50
2018-08-03T08:51:52.636Z,15.07
2018-08-03T08:54:19.468Z,14.83
2018-08-03T08:56:46.572Z,18.40
2018-08-03T08:59:13.463Z,16.53
2018-08-03T09:01:40.291Z,14.23
2018-08-03T09:04:10.246Z,14.23
2018-08-03T09:06:37.228Z,17.60
2018-08-03T09:09:04.127Z,12.57
2018-08-03T09:11:30.990Z,18.00
2018-08-03T09:13:58.356Z,15.75
2018-08-03T09:16:25.098Z,16.43
2018-08-03T09:18:51.975Z,14.20
2018-08-03T09:21:18.870Z,15.83
2018-08-03T09:23:45.671Z,16.27
2018-08-03T09:26:12.628Z,12.57
2018-08-03T09:28:39.590Z,15.33
2018-08-03T09:31:06.467Z,16.10
2018-08-03T09:33:33.308Z,10.50
2018-08-03T09:36:00.227Z,15.23
2018-08-03T09:38:27.228Z,12.13
2018-08-03T09:40:54.162Z,13.23
2018-08-03T09:43:20.982Z,12.33
2018-08-03T09:45:47.858Z,13.33
2018-08-03T09:48:19.805Z,18.57
2018-08-03T09:50:46.849Z,18.57
2018-08-03T09:53:13.903Z,12.23
2018-08-03T09:55:40.809Z,13.50
2018-08-03T09:58:07.756Z,11.93
2018-08-03T10:00:34.636Z,16.30
2018-08-03T10:03:01.483Z,21.37
2018-08-03T10:05:28.412Z,25.08
2018-08-03T10:07:55.491Z,13.40
2018-08-03T10:10:22.334Z,16.82
2018-08-03T10:12:49.460Z,14.68
2018-08-03T10:15:16.277Z,15.70
2018-08-03T10:17:43.208Z,15.72
2018-08-03T10:20:10.102Z,13.93
2018-08-03T10:22:37.060Z,12.60
2018-08-03T10:25:03.952Z,15.93
2018-08-03T10:27:31.019Z,16.53
2018-08-03T10:29:57.894Z,14.30
2018-08-03T10:32:26.172Z,14.37
2018-08-03T10:34:53.120Z,20.77
2018-08-03T10:37:20.139Z,13.20
2018-08-03T10:39:47.038Z,18.40
2018-08-03T10:42:14.053Z,13.20
2018-08-03T10:44:40.955Z,13.63
2018-08-03T10:47:08.055Z,16.57
2018-08-03T10:49:34.922Z,16.90
2018-08-03T10:52:02.209Z,11.80
2018-08-03T10:54:29.013Z,12.40
2018-08-03T10:56:56.129Z,14.90
2018-08-03T10:59:23.017Z,16.20
2018-08-03T11:01:50.018Z,14.03
2018-08-03T11:04:17.009Z,16.57
2018-08-03T11:06:44.034Z,14.13
2018-08-03T11:09:10.915Z,12.20
2018-08-03T11:11:38.105Z,12.40
2018-08-03T11:14:05.057Z,15.37
2018-08-03T11:16:31.879Z,15.83
2018-08-03T11:21:52.202Z,13.50
2018-08-03T11:24:19.155Z,13.70
2018-08-03T11:26:46.192Z,11.80
2018-08-03T11:29:13.085Z,12.53
2018-08-03T11:31:40.004Z,20.95
2018-08-03T11:34:06.914Z,18.35
2018-08-03T11:36:33.843Z,21.20
2018-08-03T11:39:00.744Z,17.15
2018-08-03T11:41:27.695Z,21.77
2018-08-03T11:43:54.556Z,22.05
2018-08-03T11:46:21.547Z,15.70
2018-08-03T11:48:48.510Z,13.20
2018-08-03T11:51:15.381Z,15.72
2018-08-03T11:53:42.279Z,16.80
2018-08-03T11:56:09.254Z,14.43
2018-08-03T11:58:36.131Z,19.83
2018-08-03T12:01:03.105Z,15.23
2018-08-03T12:03:30.116Z,14.40
2018-08-03T12:06:00.345Z,12.10
2018-08-03T12:08:27.635Z,12.43
2018-08-03T12:10:54.735Z,14.80
2018-08-03T12:13:21.907Z,14.90
2018-08-03T12:15:48.879Z,14.33
2018-08-03T12:18:15.884Z,14.30
2018-08-03T12:20:42.854Z,20.73
2018-08-03T12:23:09.875Z,12.43
2018-08-03T12:25:36.975Z,17.20
2018-08-03T12:28:04.211Z,15.13
2018-08-03T12:30:31.214Z,15.10
2018-08-03T12:32:58.453Z,16.93
2018-08-03T12:35:25.320Z,18.13
2018-08-03T12:37:52.486Z,14.50
2018-08-03T12:40:19.843Z,16.03
2018-08-03T12:42:46.657Z,17.23
2018-08-03T12:45:13.565Z,14.43
2018-08-03T12:47:40.575Z,13.17
2018-08-03T12:50:07.507Z,17.63
2018-08-03T12:52:35.221Z,15.47
2018-08-03T12:55:02.112Z,14.40
2018-08-03T12:57:29.290Z,14.30
2018-08-03T12:59:56.341Z,21.13
2018-08-03T13:02:24.433Z,15.50
2018-08-03T13:04:51.378Z,13.30
2018-08-03T13:10:56.363Z,17.20
2018-08-03T13:13:23.526Z,13.10
2018-08-03T13:15:50.582Z,20.60
2018-08-03T13:18:17.733Z,16.30
2018-08-03T13:20:44.670Z,18.00
2018-08-03T13:23:23.188Z,14.00
2018-08-03T13:31:25.948Z,14.23
2018-08-03T13:36:34.184Z,15.17
2018-08-03T13:39:01.185Z,18.70
2018-08-03T13:41:28.102Z,15.70
2018-08-03T13:43:55.131Z,17.50
2018-08-03T13:46:22.051Z,20.63
2018-08-03T13:48:49.042Z,29.83
2018-08-03T13:51:15.996Z,12.60
2018-08-03T13:53:42.981Z,15.03
2018-08-03T13:56:09.927Z,13.70
2018-08-03T13:58:37.239Z,13.37
2018-08-03T14:01:04.093Z,19.47
2018-08-03T14:03:30.995Z,15.40
2018-08-03T14:05:57.856Z,15.60
2018-08-03T14:08:25.039Z,16.73
2018-08-03T14:10:51.934Z,15.80
2018-08-03T14:13:19.008Z,18.50
2018-08-03T14:15:45.879Z,17.23
2018-08-03T14:18:13.146Z,18.07
2018-08-03T14:20:40.185Z,15.60
2018-08-03T14:23:07.179Z,13.50
2018-08-03T14:25:34.093Z,14.53
2018-08-03T14:28:01.118Z,11.77
2018-08-03T14:30:28.074Z,15.13
2018-08-03T14:32:54.985Z,15.00
2018-08-03T14:35:21.923Z,15.07
2018-08-03T14:37:48.997Z,12.83
2018-08-03T14:40:16.217Z,13.60
2018-08-03T14:42:43.097Z,14.57
2018-08-03T14:45:11.086Z,14.20
2018-08-03T14:47:37.974Z,13.10
2018-08-03T14:50:05.169Z,13.57
2018-08-03T14:52:32.184Z,17.50
2018-08-03T14:54:59.137Z,13.03
2018-08-03T14:57:26.315Z,12.50
2018-08-03T14:59:53.167Z,15.10
2018-08-03T15:02:20.669Z,12.82
2018-08-03T15:04:47.625Z,12.20
2018-08-03T15:07:14.869Z,10.80
2018-08-03T15:09:41.721Z,12.47
2018-08-03T15:12:08.590Z,14.18
2018-08-03T15:14:35.607Z,12.50
2018-08-03T15:17:02.675Z,14.25
2018-08-03T15:19:29.833Z,14.83
2018-08-03T15:21:56.883Z,14.00
2018-08-03T15:27:04.498Z,11.40
2018-08-03T15:29:31.361Z,12.83
2018-08-03T15:31:59.067Z,15.80
2018-08-03T15:34:40.687Z,14.20
2018-08-03T15:37:07.739Z,14.30
2018-08-03T15:43:05.409Z,13.57
2018-08-03T15:45:32.270Z,14.53
2018-08-03T15:48:05.317Z,12.00
2018-08-03T15:50:32.779Z,13.03
2018-08-03T15:52:59.858Z,13.00
2018-08-03T15:55:26.725Z,11.73
2018-08-03T15:57:53.924Z,12.30
2018-08-03T16:00:20.788Z,12.57
2018-08-03T16:02:47.785Z,13.53
2018-08-03T16:05:14.666Z,11.60
2018-08-03T16:07:41.905Z,14.23
2018-08-03T16:10:08.948Z,15.10
2018-08-03T16:12:35.918Z,12.10
2018-08-03T16:15:02.820Z,12.53
2018-08-03T16:17:29.931Z,13.63
2018-08-03T16:19:56.806Z,11.53
2018-08-03T16:22:23.925Z,12.97
2018-08-03T16:24:50.957Z,12.23
2018-08-03T16:27:18.080Z,13.50
2018-08-03T16:29:46.046Z,17.93
2018-08-03T16:32:13.125Z,11.40
2018-08-03T16:34:40.326Z,12.67
2018-08-03T16:37:07.523Z,14.17
2018-08-03T16:39:34.366Z,13.00
2018-08-03T16:42:01.269Z,16.48
2018-08-03T16:44:28.225Z,13.72
2018-08-03T16:46:55.394Z,13.05
2018-08-03T16:49:22.392Z,13.57
2018-08-03T16:51:49.358Z,15.07
2018-08-03T16:54:16.323Z,13.03
2018-08-03T16:56:43.364Z,11.77
2018-08-03T16:59:10.290Z,12.10
2018-08-03T17:01:37.316Z,15.50
2018-08-03T17:04:04.247Z,11.67
2018-08-03T17:06:31.373Z,16.40
2018-08-03T17:08:58.290Z,17.00
2018-08-03T17:11:25.637Z,14.60
2018-08-03T17:13:52.496Z,14.77
2018-08-03T17:40:43.951Z,29.77
2018-08-03T17:56:46.627Z,27.73
2018-08-03T18:02:04.551Z,19.57
2018-08-03T18:09:53.028Z,24.00
2018-08-03T18:12:19.906Z,23.30
2018-08-03T18:14:46.769Z,16.70
2018-08-03T18:17:13.850Z,23.20
2018-08-03T18:19:40.707Z,18.83
2018-08-03T18:22:07.703Z,24.23
2018-08-03T18:24:34.537Z,17.80
2018-08-03T18:27:01.570Z,20.82
2018-08-03T18:29:28.554Z,16.25
2018-08-03T18:31:55.428Z,18.15
2018-08-03T18:34:22.341Z,16.85
2018-08-03T18:36:49.385Z,19.42
2018-08-03T18:39:27.274Z,20.23
2018-08-03T18:42:07.499Z,19.87
2018-08-03T18:44:34.496Z,21.50
2018-08-03T18:47:01.560Z,23.17
2018-08-03T18:49:28.480Z,22.43
2018-08-03T18:51:55.364Z,21.17
2018-08-03T18:54:22.339Z,17.52
2018-08-03T18:56:49.523Z,17.00
2018-08-03T18:59:16.470Z,16.20
2018-08-03T19:01:43.412Z,18.70
2018-08-03T19:04:10.357Z,15.23
2018-08-03T19:06:37.302Z,16.13
2018-08-03T19:09:04.291Z,17.93
2018-08-03T19:11:31.158Z,16.50
2018-08-03T19:13:58.082Z,19.15
2018-08-03T19:16:25.490Z,18.95
2018-08-03T19:18:52.250Z,16.90
2018-08-03T19:21:19.161Z,14.68
2018-08-03T19:23:46.128Z,18.27
2018-08-03T19:26:13.064Z,19.55
2018-08-03T19:28:39.941Z,17.12
2018-08-03T19:31:06.922Z,20.65
2018-08-03T19:33:33.918Z,23.73
2018-08-03T19:36:00.786Z,23.73
2018-08-03T19:38:27.788Z,18.40
2018-08-03T19:40:54.733Z,23.32
2018-08-03T19:43:21.586Z,23.87
2018-08-03T19:45:48.545Z,20.73
2018-08-03T19:48:15.567Z,18.93
2018-08-03T19:50:42.653Z,26.70
2018-08-03T19:53:09.612Z,22.55
2018-08-03T19:55:36.495Z,21.73
2018-08-03T19:58:03.428Z,15.98
2018-08-03T20:00:30.392Z,19.23
2018-08-03T20:02:57.338Z,16.35
2018-08-03T20:05:24.286Z,17.67
2018-08-03T20:07:51.296Z,18.70
2018-08-03T20:10:18.175Z,24.00
2018-08-03T20:12:45.076Z,15.35
2018-08-03T20:15:11.942Z,16.30
2018-08-03T20:17:40.999Z,17.63
2018-08-03T20:20:07.961Z,15.50
2018-08-03T20:22:35.942Z,15.43
2018-08-03T20:25:03.081Z,15.33
2018-08-03T20:27:30.061Z,15.90
2018-08-03T20:29:56.926Z,17.33
2018-08-03T20:32:24.200Z,16.27
2018-08-03T20:34:51.273Z,17.47
2018-08-03T20:37:18.192Z,17.23
2018-08-03T20:39:45.446Z,17.93
2018-08-03T20:42:13.137Z,19.77
2018-08-03T20:44:40.204Z,20.97
2018-08-03T20:47:07.005Z,18.30
2018-08-03T20:49:33.959Z,17.15
2018-08-03T20:52:03.407Z,18.12
2018-08-03T20:54:30.348Z,18.93
2018-08-03T20:56:57.518Z,21.10
2018-08-03T20:59:24.402Z,14.70
2018-08-03T21:01:51.509Z,25.77
2018-08-03T21:04:18.367Z,17.33
2018-08-03T21:06:46.159Z,16.17
2018-08-03T21:09:13.125Z,17.10
2018-08-03T21:11:40.091Z,20.20
2018-08-03T21:14:06.980Z,14.50
2018-08-03T21:16:33.885Z,15.70
2018-08-03T21:19:00.855Z,18.42
2018-08-03T21:21:27.677Z,16.48
2018-08-03T21:23:58.783Z,15.98
2018-08-03T21:26:25.653Z,16.57
2018-08-03T21:28:52.621Z,14.98
2018-08-03T21:31:19.589Z,19.05
2018-08-03T21:33:50.978Z,17.63
2018-08-03T21:39:12.386Z,14.60
2018-08-03T21:41:41.529Z,15.77
2018-08-03T21:44:08.643Z,21.73
2018-08-03T21:46:36.578Z,15.10
2018-08-03T21:49:03.696Z,19.13
2018-08-03T21:51:30.535Z,17.17
2018-08-03T21:53:57.447Z,14.23
2018-08-03T21:56:24.334Z,19.07
2018-08-03T21:58:51.297Z,17.60
2018-08-03T22:01:22.205Z,14.63
2018-08-03T22:03:50.199Z,15.00
2018-08-03T22:06:18.488Z,24.17
2018-08-03T22:08:45.508Z,15.80
2018-08-03T22:11:12.498Z,18.53
2018-08-03T22:13:42.504Z,14.60
2018-08-03T22:18:43.776Z,14.73
2018-08-03T22:21:10.686Z,16.13
2018-08-03T22:23:40.751Z,14.80
2018-08-03T22:26:08.028Z,14.50
2018-08-03T22:28:35.828Z,22.00
2018-08-03T22:31:02.738Z,14.23
2018-08-03T22:33:30.519Z,13.80
2018-08-03T22:39:17.435Z,15.37
2018-08-03T22:41:44.424Z,18.40
2018-08-03T22:44:11.312Z,15.40
2018-08-03T22:46:39.240Z,14.60
2018-08-03T22:49:06.322Z,13.07
2018-08-03T22:51:33.309Z,14.00
2018-08-03T22:54:00.299Z,20.03
2018-08-03T22:56:27.237Z,13.20
2018-08-03T22:58:54.099Z,14.13
2018-08-03T23:01:21.169Z,15.27
2018-08-03T23:03:50.628Z,13.67
2018-08-03T23:06:17.465Z,14.83
2018-08-03T23:08:44.370Z,14.03
2018-08-03T23:11:11.221Z,15.20
2018-08-03T23:13:38.189Z,12.88
2018-08-03T23:16:05.182Z,16.67
2018-08-03T23:18:32.267Z,15.27
2018-08-03T23:20:59.261Z,16.03
2018-08-03T23:23:26.208Z,14.23
2018-08-03T23:25:53.144Z,14.40
2018-08-03T23:28:20.077Z,15.43
2018-08-03T23:30:50.852Z,17.00
2018-08-03T23:33:17.710Z,14.00
2018-08-03T23:35:44.741Z,15.40
2018-08-03T23:38:11.651Z,13.70
2018-08-03T23:40:38.631Z,13.10
2018-08-03T23:43:05.496Z,16.50
2018-08-03T23:45:32.522Z,16.17
2018-08-03T23:47:59.578Z,12.70
2018-08-03T23:50:26.715Z,16.97
2018-08-03T23:52:53.690Z,15.37
2018-08-03T23:55:20.980Z,14.87
2018-08-03T23:57:47.893Z,12.87
